createdAt,value
2022-09-27T00:01:29.218Z,16.58
2022-09-27T00:04:17.205Z,17.67
2022-09-27T00:07:05.474Z,17.75
2022-09-27T00:09:54.689Z,18.13
2022-09-27T00:12:42.657Z,19.23
2022-09-27T00:15:30.423Z,18.75
2022-09-27T00:18:18.145Z,17.83
2022-09-27T00:21:07.912Z,18.00
2022-09-27T00:23:55.681Z,18.80
2022-09-27T00:26:45.048Z,18.70
2022-09-27T00:29:35.639Z,20.45
2022-09-27T00:32:23.581Z,18.77
2022-09-27T00:35:11.627Z,19.55
2022-09-27T00:37:59.240Z,18.27
2022-09-27T00:40:47.284Z,20.42
2022-09-27T00:43:48.290Z,17.77
2022-09-27T00:46:40.864Z,21.35
2022-09-27T00:49:32.963Z,19.52
2022-09-27T00:52:25.295Z,18.88
2022-09-27T00:55:17.365Z,18.05
2022-09-27T00:58:06.790Z,18.85
2022-09-27T01:01:00.208Z,21.10
2022-09-27T01:03:53.945Z,22.67
2022-09-27T01:06:42.099Z,20.83
2022-09-27T01:09:30.312Z,18.65
2022-09-27T01:12:26.997Z,17.98
2022-09-27T01:15:26.806Z,17.42
2022-09-27T01:18:32.335Z,15.63
2022-09-27T01:21:39.164Z,16.45
2022-09-27T01:25:04.542Z,15.68
2022-09-27T01:28:14.736Z,15.32
2022-09-27T01:31:09.683Z,14.98
2022-09-27T01:34:05.095Z,14.15
2022-09-27T01:36:58.426Z,14.00
2022-09-27T01:39:52.519Z,14.53
2022-09-27T01:43:00.273Z,14.52
2022-09-27T01:45:57.606Z,14.50
2022-09-27T01:49:28.315Z,13.17
2022-09-27T01:52:20.650Z,16.90
2022-09-27T01:55:14.392Z,18.70
2022-09-27T01:58:43.864Z,16.70
2022-09-27T02:01:35.402Z,18.10
2022-09-27T02:04:29.328Z,17.67
2022-09-27T02:07:39.396Z,17.95
2022-09-27T02:10:31.860Z,21.73
2022-09-27T02:13:24.684Z,24.83
2022-09-27T02:16:26.392Z,23.02
2022-09-27T02:19:19.939Z,23.42
2022-09-27T02:22:18.326Z,22.27
2022-09-27T02:25:15.662Z,23.30
2022-09-27T02:28:11.602Z,21.67
2022-09-27T02:30:59.772Z,22.95
2022-09-27T02:33:57.610Z,22.38
2022-09-27T02:36:45.822Z,21.23
2022-09-27T02:39:35.043Z,24.25
2022-09-27T02:42:26.901Z,22.25
2022-09-27T02:45:16.683Z,23.30
2022-09-27T02:48:14.577Z,20.85
2022-09-27T02:51:19.862Z,23.50
2022-09-27T02:54:18.003Z,22.60
2022-09-27T02:57:35.193Z,21.00
2022-09-27T03:00:56.455Z,20.73
2022-09-27T03:04:09.947Z,23.30
2022-09-27T03:07:01.569Z,20.80
2022-09-27T03:09:51.802Z,21.23
2022-09-27T03:12:41.815Z,23.10
2022-09-27T03:15:29.458Z,22.25
2022-09-27T03:18:23.351Z,23.92
2022-09-27T03:21:16.819Z,22.60
2022-09-27T03:24:04.752Z,24.52
2022-09-27T03:26:52.390Z,25.00
2022-09-27T03:29:41.638Z,23.90
2022-09-27T03:32:31.024Z,24.67
2022-09-27T03:35:37.841Z,22.90
2022-09-27T03:38:26.047Z,22.43
2022-09-27T03:41:14.205Z,22.03
2022-09-27T03:44:02.254Z,21.30
2022-09-27T03:46:51.166Z,23.23
2022-09-27T03:49:38.786Z,24.05
2022-09-27T03:52:26.400Z,22.07
2022-09-27T03:55:14.960Z,20.63
2022-09-27T03:58:03.348Z,21.93
2022-09-27T04:00:51.118Z,21.13
2022-09-27T04:03:40.744Z,21.87
2022-09-27T04:06:46.520Z,23.63
2022-09-27T04:09:34.638Z,21.23
2022-09-27T04:12:22.800Z,20.70
2022-09-27T04:15:11.719Z,21.73
2022-09-27T04:18:11.300Z,21.80
2022-09-27T04:21:20.674Z,19.70
2022-09-27T04:24:12.634Z,18.80
2022-09-27T04:27:05.912Z,20.80
2022-09-27T04:29:53.766Z,22.52
2022-09-27T04:33:00.158Z,20.27
2022-09-27T04:36:26.278Z,20.52
2022-09-27T04:39:27.728Z,20.98
2022-09-27T04:42:15.497Z,21.30
2022-09-27T04:45:03.287Z,19.75
2022-09-27T04:47:51.645Z,22.13
2022-09-27T04:50:39.666Z,21.77
2022-09-27T04:53:27.973Z,21.88
2022-09-27T04:56:17.424Z,20.65
2022-09-27T04:59:10.630Z,21.60
2022-09-27T05:02:01.116Z,21.30
2022-09-27T05:05:11.163Z,20.88
2022-09-27T05:08:02.379Z,18.13
2022-09-27T05:11:08.004Z,19.67
2022-09-27T05:13:57.605Z,19.20
2022-09-27T05:16:46.442Z,20.85
2022-09-27T05:19:56.975Z,20.42
2022-09-27T05:23:07.869Z,19.83
2022-09-27T05:25:56.664Z,19.17
2022-09-27T05:28:44.465Z,20.55
2022-09-27T05:31:33.638Z,19.35
2022-09-27T05:34:21.674Z,21.15
2022-09-27T05:37:18.764Z,21.45
2022-09-27T05:40:22.551Z,18.85
2022-09-27T05:43:16.504Z,17.70
2022-09-27T05:46:05.617Z,18.48
2022-09-27T05:48:55.659Z,19.88
2022-09-27T05:51:43.359Z,19.02
2022-09-27T05:54:32.905Z,21.42
2022-09-27T05:57:21.700Z,21.65
2022-09-27T06:00:11.849Z,20.15
2022-09-27T06:03:04.684Z,17.42
2022-09-27T06:06:12.802Z,22.85
2022-09-27T06:09:11.168Z,20.90
2022-09-27T06:11:59.784Z,20.70
2022-09-27T06:14:48.299Z,19.60
2022-09-27T06:17:48.753Z,21.67
2022-09-27T06:20:40.028Z,19.70
2022-09-27T06:23:30.395Z,20.85
2022-09-27T06:26:20.338Z,20.00
2022-09-27T06:29:13.362Z,21.52
2022-09-27T06:32:08.112Z,19.88
2022-09-27T06:35:25.433Z,21.63
2022-09-27T06:38:15.709Z,21.58
2022-09-27T06:41:12.692Z,22.70
2022-09-27T06:44:11.500Z,21.90
2022-09-27T06:47:17.722Z,23.33
2022-09-27T06:50:14.906Z,20.63
2022-09-27T06:53:06.231Z,20.65
2022-09-27T06:55:54.173Z,22.25
2022-09-27T06:59:01.416Z,22.35
2022-09-27T07:02:05.124Z,21.15
2022-09-27T07:05:18.098Z,19.50
2022-09-27T07:08:28.798Z,21.63
2022-09-27T07:11:17.229Z,22.30
2022-09-27T07:14:08.216Z,22.50
2022-09-27T07:16:55.960Z,21.90
2022-09-27T07:19:45.935Z,21.13
2022-09-27T07:22:41.489Z,20.52
2022-09-27T07:25:30.562Z,20.75
2022-09-27T07:28:22.018Z,20.90
2022-09-27T07:31:15.089Z,20.98
2022-09-27T07:34:03.267Z,20.70
2022-09-27T07:36:51.022Z,21.13
2022-09-27T07:39:39.309Z,20.63
2022-09-27T07:42:27.457Z,20.52
2022-09-27T07:45:16.134Z,20.45
2022-09-27T07:48:15.138Z,19.70
2022-09-27T07:51:25.921Z,18.88
2022-09-27T07:54:21.346Z,19.73
2022-09-27T07:57:27.233Z,19.10
2022-09-27T08:00:20.420Z,20.50
2022-09-27T08:03:14.071Z,20.15
2022-09-27T08:06:05.449Z,20.15
2022-09-27T08:08:53.621Z,19.35
2022-09-27T08:11:41.898Z,18.45
2022-09-27T08:14:29.977Z,18.27
2022-09-27T08:17:19.231Z,18.88
2022-09-27T08:20:27.277Z,18.70
2022-09-27T08:23:26.891Z,20.17
2022-09-27T08:26:33.169Z,20.52
2022-09-27T08:29:29.103Z,17.75
2022-09-27T08:32:23.110Z,16.58
2022-09-27T08:35:15.495Z,17.65
2022-09-27T08:38:06.647Z,16.13
2022-09-27T08:40:58.871Z,15.43
2022-09-27T08:43:52.779Z,15.70
2022-09-27T08:46:54.097Z,15.30
2022-09-27T08:49:44.517Z,15.23
2022-09-27T08:52:36.844Z,15.20
2022-09-27T08:55:37.434Z,15.93
2022-09-27T08:58:33.008Z,15.60
2022-09-27T09:01:26.461Z,15.82
2022-09-27T09:04:29.802Z,15.07
2022-09-27T09:07:32.709Z,16.33
2022-09-27T09:11:00.884Z,16.05
2022-09-27T09:14:13.890Z,16.85
2022-09-27T09:17:11.792Z,17.08
2022-09-27T09:20:27.201Z,16.20
2022-09-27T09:23:49.942Z,16.08
2022-09-27T09:26:45.982Z,16.15
2022-09-27T09:29:55.972Z,17.02
2022-09-27T09:33:03.129Z,17.55
2022-09-27T09:35:59.190Z,17.00
2022-09-27T09:38:52.245Z,15.85
2022-09-27T09:41:44.859Z,16.15
2022-09-27T09:44:44.163Z,15.75
2022-09-27T09:47:37.731Z,16.63
2022-09-27T09:50:30.282Z,16.13
2022-09-27T09:53:22.753Z,17.65
2022-09-27T09:56:18.570Z,14.77
2022-09-27T09:59:14.158Z,14.18
2022-09-27T10:02:21.088Z,14.13
2022-09-27T10:05:14.526Z,13.95
2022-09-27T10:08:05.638Z,13.80
2022-09-27T10:10:53.503Z,12.25
2022-09-27T10:13:46.860Z,12.60
2022-09-27T10:16:36.319Z,10.20
2022-09-27T10:19:30.473Z,10.93
2022-09-27T10:22:25.179Z,11.30
2022-09-27T10:25:14.428Z,10.35
2022-09-27T10:28:10.068Z,10.40
2022-09-27T10:31:01.177Z,9.75
2022-09-27T10:33:56.771Z,10.10
2022-09-27T10:36:47.771Z,11.15
2022-09-27T10:39:37.956Z,11.48
2022-09-27T10:42:35.000Z,12.70
2022-09-27T10:45:31.826Z,11.40
2022-09-27T10:48:43.071Z,11.80
2022-09-27T10:51:33.063Z,13.00
2022-09-27T10:54:27.619Z,13.73
2022-09-27T10:57:21.570Z,12.35
2022-09-27T11:00:24.320Z,12.07
2022-09-27T11:03:17.638Z,12.27
2022-09-27T11:06:21.427Z,12.50
2022-09-27T11:09:20.181Z,12.60
2022-09-27T11:12:14.048Z,13.23
2022-09-27T11:15:07.578Z,11.73
2022-09-27T11:18:07.014Z,12.85
2022-09-27T11:21:03.921Z,12.77
2022-09-27T11:24:08.970Z,11.07
2022-09-27T11:27:06.541Z,11.90
2022-09-27T11:30:12.997Z,12.40
2022-09-27T11:33:53.097Z,12.35
2022-09-27T11:36:58.290Z,12.73
2022-09-27T11:40:03.172Z,13.40
2022-09-27T11:43:34.693Z,13.93
2022-09-27T11:46:38.516Z,12.77
2022-09-27T11:50:02.429Z,13.93
2022-09-27T11:53:03.994Z,14.00
2022-09-27T11:56:03.934Z,14.05
2022-09-27T11:59:06.491Z,13.95
2022-09-27T12:02:02.360Z,13.48
2022-09-27T12:05:07.421Z,14.48
2022-09-27T12:08:09.532Z,11.85
2022-09-27T12:11:04.912Z,12.15
2022-09-27T12:13:58.612Z,11.63
2022-09-27T12:16:49.161Z,11.90
2022-09-27T12:19:43.655Z,11.00
2022-09-27T12:22:58.530Z,10.50
2022-09-27T12:26:12.389Z,10.95
2022-09-27T12:29:05.894Z,9.95
2022-09-27T12:32:00.793Z,9.43
2022-09-27T12:34:55.768Z,9.05
2022-09-27T12:37:48.479Z,8.63
2022-09-27T12:40:40.630Z,9.45
2022-09-27T12:43:33.088Z,7.93
2022-09-27T12:46:42.195Z,8.50
2022-09-27T12:49:40.666Z,8.05
2022-09-27T12:52:34.850Z,8.25
2022-09-27T12:55:55.926Z,7.53
2022-09-27T12:59:04.197Z,7.28
2022-09-27T13:02:26.348Z,7.80
2022-09-27T13:05:55.694Z,7.45
2022-09-27T13:09:01.854Z,7.10
2022-09-27T13:12:02.980Z,6.70
2022-09-27T13:15:02.129Z,7.50
2022-09-27T13:17:56.655Z,7.88
2022-09-27T13:20:53.405Z,8.18
2022-09-27T13:24:04.490Z,8.40
2022-09-27T13:27:24.740Z,8.90
2022-09-27T13:30:49.732Z,8.68
2022-09-27T13:33:51.939Z,9.20
2022-09-27T13:36:45.465Z,9.07
2022-09-27T13:39:34.244Z,9.68
2022-09-27T13:42:46.368Z,9.90
2022-09-27T13:45:37.876Z,8.43
2022-09-27T13:48:31.865Z,8.60
2022-09-27T13:51:33.566Z,8.15
2022-09-27T13:54:41.969Z,8.48
2022-09-27T13:57:46.355Z,8.32
2022-09-27T14:00:43.588Z,8.20
2022-09-27T14:03:33.443Z,9.05
2022-09-27T14:06:27.525Z,9.55
2022-09-27T14:09:20.488Z,9.50
2022-09-27T14:12:19.258Z,9.27
2022-09-27T14:15:10.443Z,9.30
2022-09-27T14:17:59.872Z,8.35
2022-09-27T14:20:51.064Z,8.50
2022-09-27T14:24:30.136Z,9.40
2022-09-27T14:27:24.671Z,7.97
2022-09-27T14:30:22.760Z,7.60
2022-09-27T14:33:31.353Z,7.40
2022-09-27T14:36:52.358Z,6.78
2022-09-27T14:39:43.302Z,7.78
2022-09-27T14:42:54.990Z,7.50
2022-09-27T14:45:42.827Z,7.53
2022-09-27T14:48:33.366Z,7.60
2022-09-27T14:51:23.708Z,7.78
2022-09-27T14:54:22.567Z,7.05
2022-09-27T14:57:14.580Z,7.57
2022-09-27T15:00:12.655Z,8.13
2022-09-27T15:03:03.404Z,8.05
2022-09-27T15:05:51.847Z,7.13
2022-09-27T15:08:40.541Z,7.20
2022-09-27T15:11:29.962Z,8.30
2022-09-27T15:14:21.136Z,7.07
2022-09-27T15:17:16.605Z,7.80
2022-09-27T15:20:20.087Z,7.10
2022-09-27T15:23:07.958Z,8.10
2022-09-27T15:26:04.050Z,7.38
2022-09-27T15:28:53.348Z,8.07
2022-09-27T15:31:42.674Z,8.45
2022-09-27T15:34:33.982Z,7.57
2022-09-27T15:37:28.640Z,8.02
2022-09-27T15:40:49.232Z,7.35
2022-09-27T15:43:40.607Z,8.48
2022-09-27T15:46:38.138Z,8.63
2022-09-27T15:49:33.822Z,8.05
2022-09-27T15:52:43.332Z,8.55
2022-09-27T15:55:33.645Z,7.60
2022-09-27T15:58:23.298Z,8.80
2022-09-27T16:01:19.023Z,8.77
2022-09-27T16:04:10.216Z,7.97
2022-09-27T16:07:02.521Z,8.70
2022-09-27T16:09:52.011Z,8.32
2022-09-27T16:12:40.231Z,10.20
2022-09-27T16:15:28.202Z,9.05
2022-09-27T16:18:16.425Z,11.52
2022-09-27T16:21:04.411Z,11.02
2022-09-27T16:23:53.807Z,13.63
2022-09-27T16:26:41.886Z,12.38
2022-09-27T16:29:29.841Z,12.10
2022-09-27T16:32:18.219Z,10.65
2022-09-27T16:35:06.733Z,14.50
2022-09-27T16:37:54.376Z,8.80
2022-09-27T16:40:43.248Z,5.57
2022-09-27T16:43:32.406Z,5.25
2022-09-27T16:46:20.062Z,2.10
2022-09-27T16:49:28.546Z,2.85
2022-09-27T16:52:16.230Z,2.58
2022-09-27T16:55:04.190Z,1.88
2022-09-27T16:57:53.436Z,2.03
2022-09-27T17:00:42.100Z,2.63
2022-09-27T17:03:30.185Z,2.33
2022-09-27T17:06:17.990Z,3.25
2022-09-27T17:09:05.949Z,3.20
2022-09-27T17:11:55.404Z,2.80
2022-09-27T17:14:44.769Z,2.10
2022-09-27T17:17:32.261Z,2.95
2022-09-27T17:20:20.075Z,2.60
2022-09-27T17:23:08.088Z,3.53
2022-09-27T17:25:56.511Z,3.53
2022-09-27T17:28:44.071Z,3.90
2022-09-27T17:31:34.931Z,2.45
2022-09-27T17:34:22.544Z,3.85
2022-09-27T17:37:10.894Z,4.10
2022-09-27T17:39:58.814Z,4.10
2022-09-27T17:42:46.558Z,3.03
2022-09-27T17:45:35.689Z,5.07
2022-09-27T17:48:42.160Z,4.43
2022-09-27T17:51:31.366Z,3.92
2022-09-27T17:54:20.543Z,3.63
2022-09-27T17:57:08.913Z,4.13
2022-09-27T17:59:58.078Z,4.93
2022-09-27T18:02:46.306Z,5.00
2022-09-27T18:05:37.474Z,4.60
2022-09-27T18:08:28.970Z,3.22
2022-09-27T18:11:18.435Z,3.58
2022-09-27T18:14:07.017Z,4.47
2022-09-27T18:16:57.803Z,4.28
2022-09-27T18:19:45.668Z,4.30
2022-09-27T18:22:34.875Z,4.38
2022-09-27T18:25:25.275Z,4.32
2022-09-27T18:28:12.867Z,3.80
2022-09-27T18:34:10.759Z,4.15
2022-09-27T18:36:58.458Z,3.47
2022-09-27T18:39:49.223Z,4.45
2022-09-27T18:42:36.962Z,4.28
2022-09-27T18:45:24.992Z,4.25
2022-09-27T18:48:12.955Z,4.30
2022-09-27T18:51:01.186Z,4.25
2022-09-27T18:53:49.628Z,4.07
2022-09-27T18:56:39.649Z,3.88
2022-09-27T18:59:28.946Z,4.70
2022-09-27T19:02:16.631Z,4.20
2022-09-27T19:05:04.431Z,4.13
2022-09-27T19:07:52.751Z,4.33
2022-09-27T19:10:40.533Z,4.43
2022-09-27T19:13:35.699Z,5.38
2022-09-27T19:16:30.552Z,6.13
2022-09-27T19:19:19.258Z,6.20
2022-09-27T19:22:07.900Z,6.80
2022-09-27T19:24:55.596Z,6.83
2022-09-27T19:27:43.444Z,7.70
2022-09-27T19:30:32.649Z,7.30
2022-09-27T19:33:20.669Z,8.57
2022-09-27T19:36:11.300Z,7.67
2022-09-27T19:39:00.150Z,8.80
2022-09-27T19:41:48.000Z,8.90
2022-09-27T19:44:35.963Z,9.37
2022-09-27T19:47:24.985Z,9.70
2022-09-27T19:50:12.985Z,8.30
2022-09-27T19:53:01.045Z,7.77
2022-09-27T19:55:56.393Z,7.30
2022-09-27T19:58:44.514Z,6.73
2022-09-27T20:01:32.696Z,6.30
2022-09-27T20:04:25.997Z,5.80
2022-09-27T20:07:15.534Z,5.87
2022-09-27T20:10:03.189Z,6.03
2022-09-27T20:12:51.796Z,6.77
2022-09-27T20:15:39.962Z,6.07
2022-09-27T20:18:27.778Z,9.80
2022-09-27T20:21:17.881Z,7.97
2022-09-27T20:24:06.748Z,7.13
2022-09-27T20:26:54.857Z,6.23
2022-09-27T20:29:42.948Z,7.03
2022-09-27T20:32:30.530Z,6.37
2022-09-27T20:35:18.485Z,6.77
2022-09-27T20:38:08.351Z,7.00
2022-09-27T20:40:57.987Z,7.37
2022-09-27T20:43:46.528Z,7.27
2022-09-27T20:46:35.927Z,6.93
2022-09-27T20:49:23.620Z,6.43
2022-09-27T20:52:11.468Z,6.87
2022-09-27T20:55:00.583Z,6.87
2022-09-27T20:57:57.447Z,6.43
2022-09-27T21:00:46.121Z,7.43
2022-09-27T21:03:34.543Z,6.70
2022-09-27T21:06:24.028Z,7.47
2022-09-27T21:09:18.387Z,8.30
2022-09-27T21:12:08.390Z,11.93
2022-09-27T21:14:56.361Z,15.77
2022-09-27T21:17:43.981Z,10.83
2022-09-27T21:20:31.905Z,9.13
2022-09-27T21:23:19.630Z,8.40
2022-09-27T21:26:09.318Z,11.80
2022-09-27T21:28:59.861Z,11.17
2022-09-27T21:31:47.625Z,9.43
2022-09-27T21:34:36.059Z,10.40
2022-09-27T21:37:24.265Z,9.30
2022-09-27T21:40:12.328Z,9.27
2022-09-27T21:43:00.186Z,9.20
2022-09-27T21:45:49.341Z,9.00
2022-09-27T21:48:38.510Z,8.70
2022-09-27T21:51:29.033Z,7.37
2022-09-27T21:54:17.221Z,7.87
2022-09-27T21:57:04.821Z,6.90
2022-09-27T21:59:52.507Z,7.60
2022-09-27T22:02:42.993Z,7.50
2022-09-27T22:05:30.728Z,6.90
2022-09-27T22:08:19.703Z,6.53
2022-09-27T22:11:08.824Z,5.77
2022-09-27T22:13:57.179Z,6.00
2022-09-27T22:16:45.346Z,5.87
2022-09-27T22:19:34.942Z,6.57
2022-09-27T22:22:22.699Z,6.20
2022-09-27T22:25:10.898Z,5.85
2022-09-27T22:27:58.851Z,6.43
2022-09-27T22:30:46.359Z,6.40
2022-09-27T22:33:34.301Z,7.30
2022-09-27T22:36:25.577Z,6.57
2022-09-27T22:39:13.759Z,6.00
2022-09-27T22:42:02.018Z,5.80
2022-09-27T22:44:49.851Z,7.10
2022-09-27T22:47:37.703Z,5.83
2022-09-27T22:50:25.547Z,6.88
2022-09-27T22:53:14.991Z,6.60
2022-09-27T22:56:07.011Z,5.97
2022-09-27T22:58:54.889Z,5.80
2022-09-27T23:01:42.979Z,6.17
2022-09-27T23:04:31.149Z,6.33
2022-09-27T23:07:18.888Z,5.57
2022-09-27T23:10:09.095Z,5.70
2022-09-27T23:12:58.332Z,5.57
2022-09-27T23:15:45.854Z,6.03
2022-09-27T23:18:33.861Z,6.90
2022-09-27T23:21:22.908Z,6.50
2022-09-27T23:24:12.077Z,7.60
2022-09-27T23:27:18.685Z,7.57
2022-09-27T23:30:07.196Z,6.73
2022-09-27T23:32:55.709Z,6.80
2022-09-27T23:35:43.615Z,5.90
2022-09-27T23:38:32.441Z,5.67
2022-09-27T23:41:21.041Z,5.13
2022-09-27T23:44:10.157Z,6.43
2022-09-27T23:47:00.581Z,5.93
2022-09-27T23:49:48.932Z,6.23
2022-09-27T23:52:36.817Z,5.60
2022-09-27T23:55:24.565Z,7.00
2022-09-27T23:58:12.671Z,6.10
